Liberal, Missouri
Current Conditions -  °F | °C
As of 5:55 AM on Saturday 25 Oct 2014 (Local Time) from KPTS Reporting Station
Clear Clear  
Wind Chill: 61°   Ceiling: Unl
Heat Index: 61°   Visibility: 7mi
Dew Point: 61°   Wind: 6mph
Humidity: 100%   Direction: 210°SSW
Pressure: 30.04"   Gusts: NA
Location:  37.56°N, 94.52°W
Report Text: KPTS 251055Z AUTO 21005KT 7SM CLR 16/16 A3004 RMK AO2 T01610162
Loading
Personal Weather Stations






























Interactive Weather Map
Tropical Storm Tracking
New forecast layout! Learn more

10-Day Weather Forecast

Advertisements
Track Severe Weather on mobile